createdAt,value
2018-07-27T06:32:45.963Z,23.20
2018-07-27T06:35:15.916Z,20.70
2018-07-27T06:45:33.100Z,15.80
2018-07-27T06:48:02.260Z,19.60
2018-07-27T06:50:31.203Z,17.65
2018-07-27T06:55:31.260Z,18.55
2018-07-27T06:58:00.756Z,20.90
2018-07-27T07:00:37.262Z,15.17
2018-07-27T07:03:06.110Z,16.40
2018-07-27T07:08:02.800Z,15.63
2018-07-27T07:10:32.004Z,14.90
2018-07-27T07:13:00.904Z,11.20
2018-07-27T07:15:38.814Z,15.10
2018-07-27T07:18:07.882Z,12.03
2018-07-27T07:20:36.978Z,9.60
2018-07-27T07:23:12.507Z,14.87
2018-07-27T07:25:44.634Z,13.50
2018-07-27T07:28:15.803Z,11.13
2018-07-27T07:30:45.236Z,14.83
2018-07-27T07:33:14.038Z,16.47
2018-07-27T07:35:42.864Z,16.37
2018-07-27T07:38:12.776Z,10.83
2018-07-27T07:40:42.022Z,17.87
2018-07-27T07:43:10.996Z,16.53
2018-07-27T07:45:39.791Z,12.83
2018-07-27T07:48:08.339Z,13.47
2018-07-27T07:50:37.156Z,10.00
2018-07-27T07:53:06.517Z,13.50
2018-07-27T07:55:35.516Z,14.80
2018-07-27T07:58:09.525Z,15.03
2018-07-27T08:00:38.700Z,9.73
2018-07-27T08:03:07.878Z,12.30
2018-07-27T08:05:36.761Z,10.43
2018-07-27T08:08:06.036Z,8.23
2018-07-27T08:10:35.428Z,6.80
2018-07-27T08:13:04.736Z,9.13
2018-07-27T08:17:03.542Z,7.40
2018-07-27T08:19:32.290Z,7.10
2018-07-27T08:22:01.614Z,8.83
2018-07-27T08:24:30.376Z,25.13
2018-07-27T08:27:00.650Z,10.50
2018-07-27T08:29:31.570Z,5.83
2018-07-27T08:32:01.111Z,8.30
2018-07-27T08:34:30.192Z,6.10
2018-07-27T08:36:58.948Z,7.23
2018-07-27T08:39:31.330Z,7.37
2018-07-27T08:42:00.228Z,7.20
2018-07-27T08:44:31.294Z,8.23
2018-07-27T08:47:06.419Z,7.70
2018-07-27T08:49:35.934Z,8.30
2018-07-27T08:52:04.530Z,8.90
2018-07-27T08:54:33.431Z,7.17
2018-07-27T08:57:02.696Z,10.37
2018-07-27T08:59:31.769Z,11.30
2018-07-27T09:02:00.666Z,12.30
2018-07-27T09:04:30.386Z,9.60
2018-07-27T09:06:59.269Z,6.67
2018-07-27T09:09:28.064Z,12.33
2018-07-27T09:11:57.006Z,8.30
2018-07-27T09:14:29.476Z,10.10
2018-07-27T09:16:58.448Z,6.90
2018-07-27T09:19:27.468Z,8.93
2018-07-27T09:21:56.212Z,10.10
2018-07-27T09:24:25.410Z,15.00
2018-07-27T09:26:54.173Z,6.87
2018-07-27T09:29:22.976Z,14.13
2018-07-27T09:31:52.035Z,6.30
2018-07-27T09:35:50.469Z,11.00
2018-07-27T09:38:19.042Z,7.03
2018-07-27T09:40:48.802Z,18.90
2018-07-27T09:43:18.225Z,14.17
2018-07-27T09:45:46.732Z,9.70
2018-07-27T09:48:15.424Z,8.37
2018-07-27T09:50:44.860Z,15.83
2018-07-27T09:53:13.964Z,15.43
2018-07-27T09:55:43.246Z,12.10
2018-07-27T09:58:11.955Z,8.60
2018-07-27T10:00:45.755Z,12.33
2018-07-27T10:03:14.248Z,7.60
2018-07-27T10:05:42.861Z,10.40
2018-07-27T10:08:11.724Z,13.53
2018-07-27T10:10:40.318Z,11.20
2018-07-27T10:13:08.946Z,7.00
2018-07-27T10:15:37.462Z,8.17
2018-07-27T10:18:06.209Z,17.83
2018-07-27T10:20:34.686Z,7.07
2018-07-27T10:23:03.228Z,6.87
2018-07-27T10:25:31.838Z,8.23
2018-07-27T10:28:00.928Z,7.10
2018-07-27T10:30:30.024Z,9.43
2018-07-27T10:32:58.517Z,11.80
2018-07-27T10:35:27.049Z,13.03
2018-07-27T10:37:55.645Z,8.27
2018-07-27T10:40:24.378Z,10.10
2018-07-27T10:42:53.329Z,19.03
2018-07-27T10:45:23.416Z,7.97
2018-07-27T10:47:53.648Z,9.20
2018-07-27T10:50:24.382Z,5.97
2018-07-27T10:52:53.540Z,5.50
2018-07-27T10:55:30.603Z,6.03
2018-07-27T10:58:03.962Z,9.50
2018-07-27T11:00:37.704Z,5.83
2018-07-27T11:03:06.403Z,5.80
2018-07-27T11:08:21.160Z,11.97
2018-07-27T11:13:43.022Z,6.90
2018-07-27T11:16:12.994Z,6.13
2018-07-27T11:18:44.019Z,8.93
2018-07-27T11:21:13.061Z,5.97
2018-07-27T11:26:31.148Z,29.63
2018-07-27T11:29:05.420Z,27.40
2018-07-27T11:31:34.079Z,15.23
2018-07-27T11:34:05.304Z,21.93
2018-07-27T11:36:37.144Z,38.97
2018-07-27T11:41:59.688Z,5.00
2018-07-27T11:44:31.477Z,10.90
2018-07-27T11:47:03.412Z,9.70
2018-07-27T11:49:33.449Z,5.50
2018-07-27T11:52:03.121Z,5.87
2018-07-27T11:54:43.616Z,9.67
2018-07-27T11:57:14.022Z,5.60
2018-07-27T11:59:43.147Z,9.00
2018-07-27T12:03:42.532Z,11.30
2018-07-27T12:06:12.148Z,7.80
2018-07-27T12:08:40.732Z,6.80
2018-07-27T12:11:09.217Z,6.10
2018-07-27T12:13:37.696Z,7.77
2018-07-27T12:16:06.355Z,11.63
2018-07-27T12:18:34.884Z,7.00
2018-07-27T12:21:03.495Z,6.50
2018-07-27T12:23:31.997Z,13.70
2018-07-27T12:26:00.464Z,9.60
2018-07-27T12:28:28.963Z,9.50
2018-07-27T12:30:57.456Z,6.13
2018-07-27T12:33:25.891Z,10.90
2018-07-27T12:35:54.372Z,17.23
2018-07-27T12:38:22.884Z,6.67
2018-07-27T12:40:52.324Z,12.03
2018-07-27T12:43:20.846Z,7.57
2018-07-27T12:45:49.340Z,7.10
2018-07-27T12:48:17.797Z,21.33
2018-07-27T12:50:46.292Z,21.30
2018-07-27T12:53:14.917Z,54.90
2018-07-27T12:55:43.383Z,41.23
2018-07-27T12:58:11.854Z,60.67
2018-07-27T13:00:40.384Z,40.93
2018-07-27T13:03:08.916Z,51.30
2018-07-27T13:05:37.428Z,22.20
2018-07-27T13:08:05.976Z,11.30
2018-07-27T13:10:34.798Z,6.70
2018-07-27T13:13:03.309Z,10.67
2018-07-27T13:15:31.816Z,7.63
2018-07-27T13:18:00.313Z,6.53
2018-07-27T13:21:02.746Z,10.03
2018-07-27T13:23:31.216Z,8.83
2018-07-27T13:28:44.435Z,11.90
2018-07-27T13:31:13.419Z,6.40
2018-07-27T13:33:53.210Z,6.43
2018-07-27T13:36:21.682Z,9.30
2018-07-27T13:38:50.223Z,7.30
2018-07-27T13:41:18.708Z,5.93
2018-07-27T13:43:47.217Z,8.20
2018-07-27T13:46:15.786Z,5.67
2018-07-27T13:48:44.385Z,5.60
2018-07-27T13:51:12.963Z,7.73
2018-07-27T13:53:41.519Z,10.43
2018-07-27T13:56:10.170Z,5.90
2018-07-27T13:58:38.729Z,7.27
2018-07-27T14:01:07.414Z,12.00
2018-07-27T14:03:36.031Z,10.20
2018-07-27T14:06:04.505Z,12.90
2018-07-27T14:08:32.663Z,6.87
2018-07-27T14:11:01.153Z,6.30
2018-07-27T14:13:29.679Z,9.43
2018-07-27T14:15:58.856Z,8.60
2018-07-27T14:18:27.416Z,6.03
2018-07-27T14:20:55.909Z,7.83
2018-07-27T14:23:24.096Z,7.60
2018-07-27T14:25:58.986Z,16.50
2018-07-27T14:28:27.709Z,7.13
2018-07-27T14:32:25.528Z,10.40
2018-07-27T14:34:54.189Z,8.43
2018-07-27T14:37:22.776Z,18.37
2018-07-27T14:39:51.259Z,8.60
2018-07-27T14:42:19.860Z,8.70
2018-07-27T14:44:48.405Z,7.53
2018-07-27T14:47:16.564Z,6.03
2018-07-27T14:49:45.265Z,11.40
2018-07-27T14:52:14.082Z,11.53
2018-07-27T14:54:42.790Z,13.20
2018-07-27T14:57:11.525Z,8.67
2018-07-27T14:59:40.109Z,8.97
2018-07-27T15:02:09.097Z,10.77
2018-07-27T15:04:37.810Z,13.57
2018-07-27T15:07:06.555Z,9.40
2018-07-27T15:09:35.333Z,6.50
2018-07-27T15:12:04.327Z,10.23
2018-07-27T15:14:33.429Z,9.13
2018-07-27T15:17:02.258Z,8.80
2018-07-27T15:19:31.381Z,5.80
2018-07-27T15:22:00.351Z,9.83
2018-07-27T15:24:29.575Z,11.53
2018-07-27T15:26:58.755Z,7.53
2018-07-27T15:29:27.638Z,6.60
2018-07-27T15:31:56.745Z,10.00
2018-07-27T15:34:25.458Z,6.73
2018-07-27T15:36:55.862Z,7.90
2018-07-27T15:39:25.332Z,6.47
2018-07-27T15:41:53.922Z,12.77
2018-07-27T15:44:23.048Z,9.10
2018-07-27T15:46:52.119Z,7.27
2018-07-27T15:49:20.902Z,7.50
2018-07-27T15:51:49.679Z,12.00
2018-07-27T15:54:18.258Z,10.30
2018-07-27T15:56:47.268Z,9.60
2018-07-27T15:59:16.781Z,7.73
2018-07-27T16:01:46.075Z,7.83
2018-07-27T16:04:15.045Z,7.80
2018-07-27T16:06:44.044Z,6.77
2018-07-27T16:09:13.424Z,11.60
2018-07-27T16:11:42.133Z,14.23
2018-07-27T16:14:10.734Z,12.47
2018-07-27T16:16:39.675Z,13.23
2018-07-27T16:19:08.693Z,9.27
2018-07-27T16:21:37.585Z,10.13
2018-07-27T16:24:06.617Z,10.93
2018-07-27T16:26:35.207Z,8.83
2018-07-27T16:29:04.034Z,8.10
2018-07-27T16:31:32.881Z,11.40
2018-07-27T16:34:01.762Z,18.83
2018-07-27T16:36:30.609Z,11.07
2018-07-27T16:38:59.201Z,9.10
2018-07-27T16:41:27.681Z,11.80
2018-07-27T16:43:56.516Z,12.00
2018-07-27T16:46:25.493Z,15.13
2018-07-27T16:48:54.300Z,13.37
2018-07-27T16:51:23.079Z,14.60
2018-07-27T16:53:51.981Z,10.93
2018-07-27T16:56:20.986Z,11.70
2018-07-27T16:58:49.960Z,12.37
2018-07-27T17:01:18.850Z,11.00
2018-07-27T17:03:47.654Z,14.00
2018-07-27T17:06:16.516Z,8.70
2018-07-27T17:11:13.379Z,12.13
2018-07-27T17:13:42.212Z,11.90
2018-07-27T17:16:15.413Z,11.65
2018-07-27T17:21:12.799Z,13.30
2018-07-27T17:23:45.490Z,12.20
2018-07-27T17:29:11.162Z,9.25
2018-07-27T17:34:26.467Z,10.05
2018-07-27T17:36:55.072Z,14.70
2018-07-27T17:39:24.615Z,10.23
2018-07-27T17:41:55.258Z,9.90
2018-07-27T17:44:23.846Z,10.07
2018-07-27T17:46:52.030Z,13.47
2018-07-27T17:49:20.651Z,8.07
2018-07-27T17:51:49.221Z,15.13
2018-07-27T17:54:17.756Z,13.10
2018-07-27T17:56:46.352Z,11.13
2018-07-27T17:59:14.870Z,13.83
2018-07-27T18:01:43.487Z,12.00
2018-07-27T18:04:12.145Z,11.33
2018-07-27T18:06:40.692Z,12.80
2018-07-27T18:09:11.258Z,10.15
2018-07-27T18:11:40.051Z,11.43
2018-07-27T18:14:08.686Z,10.00
2018-07-27T18:16:37.160Z,9.50
2018-07-27T18:19:06.261Z,11.50
2018-07-27T18:21:34.787Z,13.45
2018-07-27T18:24:03.326Z,13.00
2018-07-27T18:26:31.892Z,18.47
2018-07-27T18:29:00.874Z,13.93
2018-07-27T18:33:57.350Z,11.93
2018-07-27T18:36:25.854Z,17.63
2018-07-27T18:38:54.488Z,14.90
2018-07-27T18:41:23.110Z,13.47
2018-07-27T18:43:51.825Z,11.70
2018-07-27T19:03:44.066Z,14.80
